Time;durP1;ratioP1;P1;durP2;ratioP2;P2;SDS_P1;SDS_P2;PMS_P1;PMS_P2;Temp;Humidity;BMP_temperature;BMP_pressure;BME280_temperature;BME280_humidity;BME280_pressure;Samples;Min_cycle;Max_cycle;Signal;HPM_P1;HPM_P2
2021/11/12 00:13:53;;;;;;;;;;;;;;;;;;5068042;28;19925;-71
2021/11/12 00:16:26;;;;;;;;;;;;;;;;;;5070988;28;19928;-72
2021/11/12 00:18:57;;;;;;;;;;;;;;;;;;5068492;28;20007;-72
2021/11/12 00:21:28;;;;;;;;;;;;;;;;;;5063411;28;19935;-72
2021/11/12 00:23:57;;;;;;;;;;;;;;;;;;5078496;28;19980;-71
2021/11/12 00:26:26;;;;;;;;;;;;;;;;;;5068220;28;19974;-71
2021/11/12 00:28:56;;;;;;;;;;;;;;;;;;5071477;28;20420;-71
2021/11/12 00:32:00;;;;;;;;;;;;;;;;;;5066441;28;19924;-72
2021/11/12 00:39:51;;;;;;;;;;;;;;;;;;5065758;28;19924;-72
2021/11/12 00:45:04;;;;;;;;;;;;;;;;;;5065648;28;19934;-72
2021/11/12 00:47:46;;;;;;;;;;;;;;;;;;5067429;28;19928;-72
2021/11/12 00:55:24;;;;;;;;;;;;;;;;;;5067147;28;20673;-72
2021/11/12 00:57:55;;;;;;;;;;;;;;;;;;5067083;28;19935;-72
2021/11/12 01:00:24;;;;;;;;;;;;;;;;;;5061264;28;20426;-72
2021/11/12 01:02:55;;;;;;;;;;;;;;;;;;5068563;28;20365;-71
2021/11/12 01:05:24;;;;;;;;;;;;;;;;;;5065656;28;19928;-72
2021/11/12 01:07:54;;;;;;;;;;;;;;;;;;5067986;28;19932;-71
2021/11/12 01:10:22;;;;;;;;;;;;;;;;;;5067047;28;20321;-72
2021/11/12 01:12:49;;;;;;;;;;;;;;;;;;5064689;28;20397;-71
2021/11/12 01:15:20;;;;;;;;;;;;;;;;;;5068426;28;19932;-71
2021/11/12 01:17:59;;;;;;;;;;;;;;;;;;5066475;28;19924;-72
2021/11/12 01:20:30;;;;;;;;;;;;;;;;;;5067483;28;20234;-72
2021/11/12 01:23:02;;;;;;;;;;;;;;;;;;5069056;28;19932;-72
2021/11/12 01:25:32;;;;;;;;;;;;;;;;;;5065459;28;19924;-71
2021/11/12 01:28:03;;;;;;;;;;;;;;;;;;5071938;28;19924;-72
2021/11/12 01:30:34;;;;;;;;;;;;;;;;;;5077852;28;19924;-71
2021/11/12 01:33:04;;;;;;;;;;;;;;;;;;5067230;28;20352;-71
2021/11/12 01:35:37;;;;;;;;;;;;;;;;;;5078221;28;19985;-72
2021/11/12 01:38:11;;;;;;;;;;;;;;;;;;5069204;28;19925;-73
2021/11/12 01:40:41;;;;;;;;;;;;;;;;;;5069321;28;19951;-71
2021/11/12 01:43:39;;;;;;;;;;;;;;;;;;5069452;28;19935;-70
2021/11/12 01:49:01;;;;;;;;;;;;;;;;;;5067225;28;19924;-71
2021/11/12 01:59:25;;;;;;;;;;;;;;;;;;5079311;28;19943;-71
2021/11/12 02:01:59;;;;;;;;;;;;;;;;;;5089623;28;19924;-72
2021/11/12 02:04:29;;;;;;;;;;;;;;;;;;5087390;28;19927;-70
2021/11/12 02:07:03;;;;;;;;;;;;;;;;;;5089627;28;19933;-71
2021/11/12 02:09:33;;;;;;;;;;;;;;;;;;5085680;28;19936;-71
2021/11/12 02:12:08;;;;;;;;;;;;;;;;;;5071646;28;19925;-71
2021/11/12 02:14:40;;;;;;;;;;;;;;;;;;5080266;28;19937;-71
2021/11/12 02:17:20;;;;;;;;;;;;;;;;;;5066175;28;19924;-72
2021/11/12 02:19:52;;;;;;;;;;;;;;;;;;5071294;28;19933;-71
2021/11/12 02:22:30;;;;;;;;;;;;;;;;;;5068065;28;19928;-71
2021/11/12 02:25:09;;;;;;;;;;;;;;;;;;5077587;28;20315;-71
2021/11/12 02:27:58;;;;;;;;;;;;;;;;;;5067182;28;19928;-72
2021/11/12 02:30:28;;;;;;;;;;;;;;;;;;5066872;28;19928;-70
2021/11/12 02:32:59;;;;;;;;;;;;;;;;;;5061682;28;19924;-71
2021/11/12 02:35:29;;;;;;;;;;;;;;;;;;5070236;28;19924;-71
2021/11/12 02:37:56;;;;;;;;;;;;;;;;;;5068728;28;19935;-71
2021/11/12 02:40:25;;;;;;;;;;;;;;;;;;5066930;28;19936;-71
2021/11/12 02:42:54;;;;;;;;;;;;;;;;;;5069082;28;19951;-71
2021/11/12 02:45:23;;;;;;;;;;;;;;;;;;5067536;28;20428;-71
2021/11/12 02:47:53;;;;;;;;;;;;;;;;;;5069159;28;20012;-71
2021/11/12 02:50:24;;;;;;;;;;;;;;;;;;5065511;28;19924;-71
2021/11/12 02:53:00;;;;;;;;;;;;;;;;;;5070807;28;19996;-72
2021/11/12 02:55:32;;;;;;;;;;;;;;;;;;5071348;28;19965;-71
2021/11/12 02:58:00;;;;;;;;;;;;;;;;;;5076920;28;19936;-70
2021/11/12 03:00:32;;;;;;;;;;;;;;;;;;5035541;28;20231;-71
2021/11/12 03:03:02;;;;;;;;;;;;;;;;;;5061615;28;20363;-71
2021/11/12 03:05:33;;;;;;;;;;;;;;;;;;5064191;28;20459;-72
2021/11/12 03:08:01;;;;;;;;;;;;;;;;;;5068770;28;19931;-71
2021/11/12 03:10:32;;;;;;;;;;;;;;;;;;5060888;28;20383;-72
2021/11/12 03:13:00;;;;;;;;;;;;;;;;;;5059080;28;20014;-71
2021/11/12 03:15:33;;;;;;;;;;;;;;;;;;5065732;28;19928;-71
2021/11/12 03:18:04;;;;;;;;;;;;;;;;;;5066023;28;19935;-70
2021/11/12 03:20:35;;;;;;;;;;;;;;;;;;5055265;28;19925;-71
2021/11/12 03:23:09;;;;;;;;;;;;;;;;;;5068919;28;19929;-71
2021/11/12 03:28:57;;;;;;;;;;;;;;;;;;5066211;28;19942;-71
2021/11/12 04:02:41;;;;;;;;;;;;;;;;;;4988082;28;19930;-70
2021/11/12 04:22:04;;;;;;;;;;;;;;;;;;5084298;28;19980;-71
2021/11/12 04:30:52;;;;;;;;;;;;;;;;;;5086386;28;19981;-71
2021/11/12 05:10:16;;;;;;;;;;;;;;;;;;5066626;28;19935;-70
2021/11/12 05:57:02;;;;;;;;;;;;;;;;;;4994123;28;19976;-71
2021/11/12 05:59:31;;;;;;;;;;;;;;;;;;5000477;28;19925;-71
2021/11/12 06:01:59;;;;;;;;;;;;;;;;;;4999450;28;20388;-70
2021/11/12 06:04:27;;;;;;;;;;;;;;;;;;4997767;28;19925;-70
2021/11/12 06:06:57;;;;;;;;;;;;;;;;;;4983519;28;19995;-70
2021/11/12 06:09:30;;;;;;;;;;;;;;;;;;4999620;28;20611;-70
2021/11/12 06:11:57;;;;;;;;;;;;;;;;;;5002229;28;19925;-70
2021/11/12 06:14:28;;;;;;;;;;;;;;;;;;4992615;28;20729;-70
2021/11/12 06:16:58;;;;;;;;;;;;;;;;;;5003556;28;19929;-70
2021/11/12 06:19:27;;;;;;;;;;;;;;;;;;5065356;28;19928;-70
2021/11/12 06:21:58;;;;;;;;;;;;;;;;;;5071678;28;19928;-70
2021/11/12 06:24:30;;;;;;;;;;;;;;;;;;5067265;28;19977;-70
2021/11/12 06:26:58;;;;;;;;;;;;;;;;;;5070010;28;19928;-70
2021/11/12 06:29:27;;;;;;;;;;;;;;;;;;5067150;28;19928;-70
2021/11/12 06:31:57;;;;;;;;;;;;;;;;;;5067661;28;19932;-70
2021/11/12 06:34:29;;;;;;;;;;;;;;;;;;5066542;28;19928;-71
2021/11/12 06:36:59;;;;;;;;;;;;;;;;;;5047867;28;19935;-71
2021/11/12 06:39:30;;;;;;;;;;;;;;;;;;5051376;28;19932;-71
2021/11/12 06:42:09;;;;;;;;;;;;;;;;;;5079561;28;20023;-70
2021/11/12 06:49:18;;;;;;;;;;;;;;;;;;5066379;28;19931;-70
2021/11/12 06:50:45;;;;;;;;;;;;;;;;;;5066446;28;19932;-68
2021/11/12 06:53:14;;;;;;;;;;;;;;;;;;5062565;28;19943;-69
2021/11/12 06:55:45;;;;;;;;;;;;;;;;;;5071042;28;19925;-70
2021/11/12 06:58:16;;;;;;;;;;;;;;;;;;5067262;28;20525;-71
2021/11/12 07:00:48;;;;;;;;;;;;;;;;;;5066876;28;20384;-70
2021/11/12 07:03:22;;;;;;;;;;;;;;;;;;5069033;28;20223;-71
2021/11/12 07:05:56;;;;;;;;;;;;;;;;;;5070655;28;19928;-71
2021/11/12 07:08:24;;;;;;;;;;;;;;;;;;5067156;28;19935;-70
2021/11/12 07:10:56;;;;;;;;;;;;;;;;;;5077384;28;20300;-71
2021/11/12 07:13:28;;;;;;;;;;;;;;;;;;5087594;28;19924;-70
2021/11/12 07:15:59;;;;;;;;;;;;;;;;;;5081925;28;19925;-68
2021/11/12 07:18:29;;;;;;;;;;;;;;;;;;5081596;28;20345;-69
2021/11/12 07:21:00;;;;;;;;;;;;;;;;;;5083814;28;20386;-70
2021/11/12 07:23:42;;;;;;;;;;;;;;;;;;5068347;28;20576;-70
2021/11/12 07:26:20;;;;;;;;;;;;;;;;;;5073078;28;20321;-67
2021/11/12 07:28:52;;;;;;;;;;;;;;;;;;5075419;28;19936;-68
2021/11/12 07:31:40;;;;;;;;;;;;;;;;;;5072567;28;19946;-69
2021/11/12 07:34:10;;;;;;;;;;;;;;;;;;5090764;28;19935;-69
2021/11/12 07:36:46;;;;;;;;;;;;;;;;;;5083006;28;19928;-68
2021/11/12 07:39:50;;;;;;;;;;;;;;;;;;5080568;28;20359;-69
2021/11/12 07:45:01;;;;;;;;;;;;;;;;;;5084721;28;19932;-71
2021/11/12 07:47:40;;;;;;;;;;;;;;;;;;5074990;28;19924;-72
2021/11/12 07:50:08;;;;;;;;;;;;;;;;;;5087407;28;19934;-72
2021/11/12 07:52:38;;;;;;;;;;;;;;;;;;5082941;28;19939;-73
2021/11/12 07:55:12;;;;;;;;;;;;;;;;;;5084157;28;19925;-71
2021/11/12 07:57:42;;;;;;;;;;;;;;;;;;5086446;28;20317;-72
2021/11/12 08:00:10;;;;;;;;;;;;;;;;;;5076813;28;19974;-74
2021/11/12 08:02:38;;;;;;;;;;;;;;;;;;5080312;28;19932;-75
2021/11/12 08:05:20;;;;;;;;;;;;;;;;;;5082490;28;19981;-72
2021/11/12 08:07:49;;;;;;;;;;;;;;;;;;5083699;28;19928;-72
2021/11/12 08:10:21;;;;;;;;;;;;;;;;;;5086405;28;19957;-74
2021/11/12 08:13:03;;;;;;;;;;;;;;;;;;5079626;28;19931;-75
2021/11/12 08:18:39;;;;;;;;;;;;;;;;;;5081694;28;19931;-73
2021/11/12 08:21:11;;;;;;;;;;;;;;;;;;5089032;28;19993;-72
2021/11/12 08:27:18;;;;;;;;;;;;;;;;;;5082559;28;20264;-71
2021/11/12 08:32:43;;;;;;;;;;;;;;;;;;5082284;28;19931;-74
2021/11/12 08:37:55;;;;;;;;;;;;;;;;;;5085938;28;19931;-71
2021/11/12 08:40:45;;;;;;;;;;;;;;;;;;5087108;28;19932;-71
2021/11/12 08:45:43;;;;;;;;;;;;;;;;;;5087056;28;19928;-73
2021/11/12 08:48:16;;;;;;;;;;;;;;;;;;5081300;28;19924;-72
2021/11/12 08:50:47;;;;;;;;;;;;;;;;;;5085853;28;19924;-73
2021/11/12 08:53:20;;;;;;;;;;;;;;;;;;5086375;28;19928;-72
2021/11/12 08:55:51;;;;;;;;;;;;;;;;;;5083566;28;19936;-71
2021/11/12 08:58:22;;;;;;;;;;;;;;;;;;5086227;28;19924;-69
2021/11/12 09:00:51;;;;;;;;;;;;;;;;;;5081850;28;20552;-69
2021/11/12 09:03:19;;;;;;;;;;;;;;;;;;5086072;28;19928;-71
2021/11/12 09:05:48;;;;;;;;;;;;;;;;;;5086531;28;19932;-70
2021/11/12 09:08:17;;;;;;;;;;;;;;;;;;5082190;28;19932;-70
2021/11/12 09:10:48;;;;;;;;;;;;;;;;;;5076228;28;20584;-68
2021/11/12 09:13:24;;;;;;;;;;;;;;;;;;5078349;28;19939;-70
2021/11/12 09:15:55;;;;;;;;;;;;;;;;;;5083110;28;19946;-70
2021/11/12 09:18:23;;;;;;;;;;;;;;;;;;5085801;28;19940;-70
2021/11/12 09:20:55;;;;;;;;;;;;;;;;;;5087974;28;20479;-70
2021/11/12 09:23:25;;;;;;;;;;;;;;;;;;5084176;28;20338;-68
2021/11/12 09:26:09;;;;;;;;;;;;;;;;;;5082677;28;19943;-72
2021/11/12 09:28:40;;;;;;;;;;;;;;;;;;5089252;28;20296;-71
2021/11/12 09:31:09;;;;;;;;;;;;;;;;;;5086762;28;19924;-69
2021/11/12 09:33:36;;;;;;;;;;;;;;;;;;5086442;28;19924;-71
2021/11/12 09:36:10;;;;;;;;;;;;;;;;;;5091532;28;19967;-73
2021/11/12 09:38:41;;;;;;;;;;;;;;;;;;5103869;28;19968;-72
2021/11/12 09:41:10;;;;;;;;;;;;;;;;;;5096111;28;20037;-69
2021/11/12 09:43:40;;;;;;;;;;;;;;;;;;5075814;28;19925;-68
2021/11/12 09:46:15;;;;;;;;;;;;;;;;;;5087895;28;20053;-71
2021/11/12 09:48:46;;;;;;;;;;;;;;;;;;5085184;28;20426;-71
2021/11/12 09:51:16;;;;;;;;;;;;;;;;;;5092166;28;19924;-71
2021/11/12 09:53:46;;;;;;;;;;;;;;;;;;5085073;28;19928;-73
2021/11/12 09:56:15;;;;;;;;;;;;;;;;;;5092369;28;19924;-69
2021/11/12 09:58:46;;;;;;;;;;;;;;;;;;5088260;28;20261;-69
2021/11/12 10:01:15;;;;;;;;;;;;;;;;;;5084526;28;19989;-71
2021/11/12 10:03:47;;;;;;;;;;;;;;;;;;5084942;28;19938;-71
2021/11/12 10:06:18;;;;;;;;;;;;;;;;;;5084193;28;19924;-67
2021/11/12 10:08:47;;;;;;;;;;;;;;;;;;5086560;28;19932;-70
2021/11/12 10:11:15;;;;;;;;;;;;;;;;;;5058790;28;19935;-71
2021/11/12 10:13:48;;;;;;;;;;;;;;;;;;5059970;28;21196;-73
2021/11/12 10:16:25;;;;;;;;;;;;;;;;;;5064632;28;19932;-75
2021/11/12 10:18:53;;;;;;;;;;;;;;;;;;5071765;28;19932;-74
2021/11/12 10:21:21;;;;;;;;;;;;;;;;;;5071022;28;19936;-70
2021/11/12 10:23:52;;;;;;;;;;;;;;;;;;5059826;28;20441;-69
2021/11/12 10:26:22;;;;;;;;;;;;;;;;;;5071564;28;19932;-67
2021/11/12 10:28:51;;;;;;;;;;;;;;;;;;5053654;28;19997;-70
2021/11/12 10:31:21;;;;;;;;;;;;;;;;;;5057697;28;20457;-66
2021/11/12 10:33:48;;;;;;;;;;;;;;;;;;5051507;28;19928;-67
2021/11/12 10:36:18;;;;;;;;;;;;;;;;;;5058747;28;19936;-71
2021/11/12 10:38:49;;;;;;;;;;;;;;;;;;5056917;28;20320;-71
2021/11/12 10:41:17;;;;;;;;;;;;;;;;;;5065903;28;19935;-70
2021/11/12 10:43:45;;;;;;;;;;;;;;;;;;5066884;28;19936;-68
2021/11/12 10:46:14;;;;;;;;;;;;;;;;;;5066745;28;19939;-70
2021/11/12 10:48:43;;;;;;;;;;;;;;;;;;5050272;28;20498;-69
2021/11/12 10:51:12;;;;;;;;;;;;;;;;;;5068660;28;19951;-68
2021/11/12 10:53:40;;;;;;;;;;;;;;;;;;5069744;28;19924;-68
2021/11/12 10:56:11;;;;;;;;;;;;;;;;;;5065932;28;19934;-70
2021/11/12 10:58:42;;;;;;;;;;;;;;;;;;5065083;28;20548;-69
2021/11/12 11:01:11;;;;;;;;;;;;;;;;;;5067687;28;19978;-68
2021/11/12 11:03:39;;;;;;;;;;;;;;;;;;5064344;28;20328;-68
2021/11/12 11:06:10;;;;;;;;;;;;;;;;;;5066397;28;20025;-69
2021/11/12 11:08:42;;;;;;;;;;;;;;;;;;5066629;28;19951;-69
2021/11/12 11:11:12;;;;;;;;;;;;;;;;;;5059242;28;20273;-69
2021/11/12 11:13:41;;;;;;;;;;;;;;;;;;5059010;28;19924;-70
2021/11/12 11:16:19;;;;;;;;;;;;;;;;;;5064848;28;19932;-69
2021/11/12 11:18:56;;;;;;;;;;;;;;;;;;5061225;28;19929;-69
2021/11/12 11:21:27;;;;;;;;;;;;;;;;;;5051343;28;19939;-69
2021/11/12 11:23:59;;;;;;;;;;;;;;;;;;5063987;28;19929;-70
2021/11/12 11:26:30;;;;;;;;;;;;;;;;;;5062124;28;19931;-69
2021/11/12 11:29:01;;;;;;;;;;;;;;;;;;5054802;28;19938;-69
2021/11/12 11:31:29;;;;;;;;;;;;;;;;;;5066633;28;19932;-69
2021/11/12 11:34:07;;;;;;;;;;;;;;;;;;5060372;28;19925;-69
2021/11/12 11:36:36;;;;;;;;;;;;;;;;;;5061859;28;19932;-69
2021/11/12 11:39:04;;;;;;;;;;;;;;;;;;5050724;28;19924;-69
2021/11/12 11:41:33;;;;;;;;;;;;;;;;;;5066342;28;19960;-68
2021/11/12 11:44:04;;;;;;;;;;;;;;;;;;5065263;28;19925;-69
2021/11/12 11:46:33;;;;;;;;;;;;;;;;;;5060353;28;19954;-69
2021/11/12 11:49:04;;;;;;;;;;;;;;;;;;5058542;28;20369;-69
2021/11/12 11:53:30;;;;;;;8.30;7.43;;;;;;;;;;5097087;27;20356;-72
2021/11/12 11:56:17;;;;;;;7.43;6.80;;;;;;;;;;5081999;28;20999;-69
2021/11/12 11:58:52;;;;;;;7.90;7.13;;;;;;;;;;5085510;28;20402;-71
2021/11/12 12:01:22;;;;;;;7.32;6.50;;;;;;;;;;5076872;28;20973;-71
2021/11/12 12:04:13;;;;;;;7.18;6.47;;;;;;;;;;5088115;28;20438;-72
2021/11/12 12:06:44;;;;;;;7.23;6.53;;;;;;;;;;5076204;28;20846;-70
2021/11/12 12:09:51;;;;;;;6.70;6.10;;;;;;;;;;5081342;28;20452;-72
2021/11/12 12:12:35;;;;;;;6.63;6.00;;;;;;;;;;5055435;28;20413;-70
2021/11/12 12:15:05;;;;;;;6.82;6.22;;;;;;;;;;5058648;28;20747;-73
2021/11/12 12:17:46;;;;;;;7.60;6.90;;;;;;;;;;5055787;28;20438;-73
2021/11/12 12:20:30;;;;;;;7.50;6.72;;;;;;;;;;5052564;28;20402;-72
2021/11/12 13:18:34;;;;;;;6.90;6.30;;;;;;;;;;5055896;28;20399;-70
2021/11/12 13:25:57;;;;;;;8.57;6.85;;;;;;;;;;5045456;28;20441;-68
2021/11/12 13:28:30;;;;;;;7.72;7.03;;;;;;;;;;5042158;28;20407;-67
2021/11/12 13:31:05;;;;;;;7.68;6.97;;;;;;;;;;5044439;28;20392;-67
2021/11/12 13:33:42;;;;;;;7.10;6.40;;;;;;;;;;5048138;28;20396;-71
2021/11/12 13:36:20;;;;;;;7.57;6.88;;;;;;;;;;5045135;28;20402;-73
2021/11/12 13:38:52;;;;;;;6.93;6.20;;;;;;;;;;5047427;28;20810;-73
2021/11/12 13:41:25;;;;;;;7.87;6.20;;;;;;;;;;5043310;28;20422;-72
2021/11/12 13:44:16;;;;;;;6.38;5.78;;;;;;;;;;5051205;28;20416;-73
2021/11/12 13:47:03;;;;;;;6.57;5.97;;;;;;;;;;5039955;28;20756;-71
2021/11/12 13:49:42;;;;;;;6.68;6.07;;;;;;;;;;5028648;28;21098;-73
2021/11/12 13:52:29;;;;;;;6.78;6.05;;;;;;;;;;5041877;28;20404;-71
2021/11/12 13:55:10;;;;;;;8.02;7.22;;;;;;;;;;5049776;28;20496;-71
2021/11/12 13:57:47;;;;;;;7.50;6.80;;;;;;;;;;5042264;28;20464;-70
2021/11/12 14:00:20;;;;;;;7.95;6.63;;;;;;;;;;5045658;28;21092;-70
2021/11/12 14:02:54;;;;;;;6.68;6.03;;;;;;;;;;5043274;28;20401;-69
2021/11/12 14:05:27;;;;;;;6.53;5.80;;;;;;;;;;5017748;28;20489;-69
2021/11/12 14:08:03;;;;;;;6.38;5.78;;;;;;;;;;5058442;28;20787;-69
2021/11/12 14:10:46;;;;;;;6.20;5.60;;;;;;;;;;5047147;28;21051;-71
2021/11/12 14:13:19;;;;;;;6.38;5.78;;;;;;;;;;5057655;28;20761;-72
2021/11/12 14:16:04;;;;;;;7.22;5.63;;;;;;;;;;5056813;28;20422;-71
2021/11/12 14:18:51;;;;;;;6.20;5.60;;;;;;;;;;5044217;28;20406;-74
2021/11/12 14:30:42;;;;;;;5.60;5.10;;;;;;;;;;5050104;28;21134;-72
2021/11/12 14:33:20;;;;;;;7.15;5.40;;;;;;;;;;5025769;28;20403;-72
2021/11/12 14:38:48;;;;;;;6.05;5.45;;;;;;;;;;5043326;28;20892;-68
2021/11/12 14:44:46;;;;;;;6.30;5.70;;;;;;;;;;5014293;28;20926;-72
2021/11/12 14:47:28;;;;;;;6.45;5.85;;;;;;;;;;5023607;28;20416;-69
2021/11/12 14:50:23;;;;;;;6.25;5.65;;;;;;;;;;5020777;28;20405;-70
2021/11/12 14:53:05;;;;;;;6.18;5.15;;;;;;;;;;5028300;28;20422;-71
2021/11/12 14:55:37;;;;;;;7.10;5.57;;;;;;;;;;5041622;28;20402;-71
2021/11/12 14:58:21;;;;;;;5.97;5.38;;;;;;;;;;5045599;28;20473;-71
2021/11/12 15:01:09;;;;;;;6.75;5.88;;;;;;;;;;5042892;28;20398;-71
2021/11/12 15:03:45;;;;;;;6.33;5.57;;;;;;;;;;5045019;28;20400;-71
2021/11/12 15:06:16;;;;;;;5.88;5.30;;;;;;;;;;5042906;28;20398;-69
2021/11/12 15:08:51;;;;;;;6.47;5.68;;;;;;;;;;5025472;28;20492;-70
2021/11/12 15:11:25;;;;;;;6.85;6.15;;;;;;;;;;5058552;28;20730;-73
2021/11/12 15:14:08;;;;;;;6.40;5.80;;;;;;;;;;5054824;28;20403;-71
2021/11/12 15:16:55;;;;;;;6.90;6.20;;;;;;;;;;5053732;28;20765;-70
2021/11/12 15:19:34;;;;;;;8.27;5.88;;;;;;;;;;5062687;28;20470;-68
2021/11/12 15:28:10;;;;;;;5.57;5.07;;;;;;;;;;5053357;28;20399;-71
2021/11/12 15:33:29;;;;;;;5.70;5.07;;;;;;;;;;5042538;28;20419;-70
2021/11/12 15:36:04;;;;;;;5.80;5.30;;;;;;;;;;5052144;28;20494;-71
2021/11/12 15:38:53;;;;;;;6.33;5.73;;;;;;;;;;5040091;28;20414;-70
2021/11/12 15:41:57;;;;;;;6.30;5.70;;;;;;;;;;5033506;28;20403;-69
2021/11/12 15:44:36;;;;;;;5.72;5.20;;;;;;;;;;5029946;28;20393;-69
2021/11/12 15:47:21;;;;;;;6.40;5.70;;;;;;;;;;5036508;28;20475;-69
2021/11/12 15:49:54;;;;;;;5.88;5.38;;;;;;;;;;5033482;28;20400;-69
2021/11/12 15:52:49;;;;;;;5.90;5.33;;;;;;;;;;5042007;28;20419;-68
2021/11/12 15:55:52;;;;;;;6.25;5.47;;;;;;;;;;5028907;28;20403;-72
2021/11/12 15:58:35;;;;;;;6.25;5.68;;;;;;;;;;5035563;28;20914;-67
2021/11/12 16:07:30;;;;;;;5.95;5.45;;;;;;;;;;5000633;28;21027;-68
2021/11/12 16:12:47;;;;;;;6.00;5.40;;;;;;;;;;4959386;28;20410;-68
2021/11/12 16:21:21;;;;;;;5.80;5.30;;;;;;;;;;5028710;28;20519;-67
2021/11/12 16:26:28;;;;;;;6.00;5.50;;;;;;;;;;5028751;28;20416;-67
2021/11/12 16:31:49;;;;;;;5.73;5.23;;;;;;;;;;5030117;28;20853;-67
2021/11/12 16:34:21;;;;;;;6.17;5.43;;;;;;;;;;5036003;28;20388;-67
2021/11/12 16:36:57;;;;;;;5.50;5.00;;;;;;;;;;5025679;28;20778;-67
2021/11/12 16:42:43;;;;;;;6.22;5.50;;;;;;;;;;5047312;28;20405;-67
2021/11/12 16:48:10;;;;;;;6.15;5.65;;;;;;;;;;5041998;28;20428;-67
2021/11/12 17:05:05;;;;;;;6.38;5.70;;;;;;;;;;5042778;28;20729;-67
2021/11/12 17:18:44;;;;;;;6.65;6.00;;;;;;;;;;5042345;28;20407;-67
2021/11/12 17:44:48;;;;;;;6.10;5.50;;;;;;;;;;4994504;28;20782;-67
2021/11/12 17:47:08;;;;;;;5.20;4.70;;;;;;;;;;5041261;28;20403;-65
2021/11/12 18:07:04;;;;;;;5.43;4.88;;;;;;;;;;4970885;28;20422;-69
2021/11/12 18:18:30;;;;;;;6.05;4.75;;;;;;;;;;5038938;28;20442;-69
2021/11/12 21:44:30;;;;;;;5.13;4.63;;;;;;;;;;5037956;28;20414;-69
2021/11/12 21:46:59;;;;;;;5.57;4.53;;;;;;;;;;5038888;28;20390;-69
2021/11/12 21:49:34;;;;;;;6.38;5.20;;;;;;;;;;5036166;28;20739;-69
2021/11/12 21:52:04;;;;;;;6.28;5.20;;;;;;;;;;5034808;28;20412;-69
2021/11/12 21:54:34;;;;;;;5.63;4.78;;;;;;;;;;5047593;28;20408;-68
2021/11/12 21:57:09;;;;;;;5.53;4.88;;;;;;;;;;5037500;28;20401;-69
2021/11/12 21:59:38;;;;;;;5.10;4.55;;;;;;;;;;5036630;28;20442;-69
2021/11/12 22:02:12;;;;;;;5.90;5.40;;;;;;;;;;5038291;28;20396;-69
2021/11/12 22:04:41;;;;;;;5.25;4.18;;;;;;;;;;5020709;28;20399;-67
2021/11/12 22:07:12;;;;;;;6.47;4.25;;;;;;;;;;5051632;28;20409;-69
2021/11/12 22:09:43;;;;;;;5.37;4.10;;;;;;;;;;5038505;28;20426;-68
2021/11/12 22:12:16;;;;;;;5.63;4.47;;;;;;;;;;5042573;28;20502;-68
2021/11/12 22:14:46;;;;;;;6.50;5.10;;;;;;;;;;5049805;28;20419;-69
2021/11/12 22:17:16;;;;;;;8.30;5.40;;;;;;;;;;5038657;28;20418;-68
2021/11/12 22:19:49;;;;;;;5.95;5.35;;;;;;;;;;5040403;28;20493;-68
2021/11/12 22:22:19;;;;;;;6.63;5.13;;;;;;;;;;5038240;28;20440;-68
2021/11/12 22:24:51;;;;;;;6.82;4.80;;;;;;;;;;5037180;28;20389;-70
2021/11/12 22:27:20;;;;;;;7.80;5.15;;;;;;;;;;5041460;28;20849;-71
2021/11/12 22:29:59;;;;;;;7.38;4.70;;;;;;;;;;5038748;28;20786;-71
2021/11/12 22:32:26;;;;;;;8.10;5.25;;;;;;;;;;5045169;28;20404;-70
2021/11/12 22:35:00;;;;;;;6.85;4.65;;;;;;;;;;5032901;28;21135;-70
2021/11/12 22:37:32;;;;;;;6.60;4.60;;;;;;;;;;5056914;28;20771;-70
2021/11/12 22:40:02;;;;;;;6.70;4.65;;;;;;;;;;5018899;28;20410;-70
2021/11/12 22:42:29;;;;;;;6.95;4.78;;;;;;;;;;5050850;28;20404;-72
2021/11/12 22:44:57;;;;;;;5.97;4.43;;;;;;;;;;5038760;28;20407;-71
2021/11/12 22:47:27;;;;;;;6.13;4.78;;;;;;;;;;5042330;28;20410;-71
2021/11/12 22:49:57;;;;;;;6.13;4.50;;;;;;;;;;5039978;28;20395;-68
2021/11/12 22:52:30;;;;;;;9.67;5.00;;;;;;;;;;5036707;28;20412;-68
2021/11/12 22:54:59;;;;;;;5.25;4.75;;;;;;;;;;5031969;28;20427;-68
2021/11/12 22:57:44;;;;;;;5.20;4.70;;;;;;;;;;5038859;28;20487;-68
2021/11/12 23:00:41;;;;;;;6.03;4.78;;;;;;;;;;5041404;28;20725;-68
2021/11/12 23:03:09;;;;;;;5.07;4.53;;;;;;;;;;5040768;28;20410;-68
2021/11/12 23:05:40;;;;;;;5.22;4.32;;;;;;;;;;5040992;28;20465;-68
2021/11/12 23:08:10;;;;;;;6.65;4.18;;;;;;;;;;5054552;28;20508;-68
2021/11/12 23:10:41;;;;;;;4.95;4.47;;;;;;;;;;5037649;28;20895;-68
2021/11/12 23:13:11;;;;;;;6.15;4.72;;;;;;;;;;5040836;28;20383;-68
2021/11/12 23:15:40;;;;;;;4.88;4.38;;;;;;;;;;5040903;28;20514;-68
2021/11/12 23:18:09;;;;;;;6.13;4.30;;;;;;;;;;5051647;28;20402;-68
2021/11/12 23:20:44;;;;;;;5.20;4.63;;;;;;;;;;5057225;28;20400;-68
2021/11/12 23:23:12;;;;;;;4.30;3.90;;;;;;;;;;5041646;28;20467;-68
2021/11/12 23:25:43;;;;;;;5.40;4.20;;;;;;;;;;5045144;28;20861;-68
2021/11/12 23:28:16;;;;;;;4.47;4.07;;;;;;;;;;5040315;28;20403;-68
2021/11/12 23:30:46;;;;;;;5.00;4.50;;;;;;;;;;5031847;28;21093;-68
2021/11/12 23:33:17;;;;;;;4.97;4.25;;;;;;;;;;5038203;28;20920;-68
2021/11/12 23:35:50;;;;;;;5.93;4.63;;;;;;;;;;5040791;28;20832;-68
2021/11/12 23:38:19;;;;;;;4.83;4.30;;;;;;;;;;5039247;28;20877;-68
2021/11/12 23:40:50;;;;;;;4.50;4.10;;;;;;;;;;5024156;28;20401;-68
2021/11/12 23:43:21;;;;;;;5.63;4.22;;;;;;;;;;5039796;28;20403;-68
2021/11/12 23:45:54;;;;;;;4.45;4.05;;;;;;;;;;5035019;28;20406;-68
2021/11/12 23:48:24;;;;;;;4.75;4.15;;;;;;;;;;5020724;28;20413;-68
2021/11/12 23:50:53;;;;;;;5.03;4.60;;;;;;;;;;5027299;28;20407;-68
2021/11/12 23:53:21;;;;;;;4.47;4.07;;;;;;;;;;5042261;28;20406;-68
2021/11/12 23:55:53;;;;;;;4.68;4.28;;;;;;;;;;5057192;28;20862;-68
2021/11/12 23:58:23;;;;;;;4.97;4.47;;;;;;;;;;5037274;28;20409;-69
